sensor_id;sensor_type;location;lat;lon;timestamp;pressure;altitude;pressure_sealevel;temperature;humidity
78409;BME280;67697;50.750;-3.270;2023-02-28T00:02:00;102623.60;;;3.75;54.67
78409;BME280;67697;50.750;-3.270;2023-02-28T00:04:26;102624.40;;;4.30;53.34
78409;BME280;67697;50.750;-3.270;2023-02-28T00:06:51;102625.25;;;3.47;55.22
78409;BME280;67697;50.750;-3.270;2023-02-28T00:09:16;102624.62;;;3.69;55.59
78409;BME280;67697;50.750;-3.270;2023-02-28T00:11:42;102624.00;;;3.10;57.08
78409;BME280;67697;50.750;-3.270;2023-02-28T00:14:07;102620.61;;;3.12;56.86
78409;BME280;67697;50.750;-3.270;2023-02-28T00:16:33;102616.76;;;3.94;55.07
78409;BME280;67697;50.750;-3.270;2023-02-28T00:18:58;102619.87;;;3.56;55.84
78409;BME280;67697;50.750;-3.270;2023-02-28T00:21:24;102615.53;;;3.09;56.58
78409;BME280;67697;50.750;-3.270;2023-02-28T00:23:50;102608.75;;;3.42;55.71
78409;BME280;67697;50.750;-3.270;2023-02-28T00:26:15;102606.87;;;2.83;57.79
78409;BME280;67697;50.750;-3.270;2023-02-28T00:28:41;102612.83;;;1.63;59.90
78409;BME280;67697;50.750;-3.270;2023-02-28T00:31:07;102609.03;;;2.26;59.70
78409;BME280;67697;50.750;-3.270;2023-02-28T00:33:32;102612.11;;;1.84;59.90
78409;BME280;67697;50.750;-3.270;2023-02-28T00:36:03;102609.38;;;2.95;57.08
78409;BME280;67697;50.750;-3.270;2023-02-28T00:38:23;102607.38;;;3.90;54.01
78409;BME280;67697;50.750;-3.270;2023-02-28T00:40:49;102606.61;;;3.71;55.26
78409;BME280;67697;50.750;-3.270;2023-02-28T00:43:14;102611.24;;;2.95;56.24
78409;BME280;67697;50.750;-3.270;2023-02-28T00:45:40;102616.56;;;4.41;52.99
78409;BME280;67697;50.750;-3.270;2023-02-28T00:48:06;102618.53;;;3.72;54.21
78409;BME280;67697;50.750;-3.270;2023-02-28T00:50:32;102614.83;;;4.06;53.63
78409;BME280;67697;50.750;-3.270;2023-02-28T00:52:58;102612.43;;;3.18;56.10
78409;BME280;67697;50.750;-3.270;2023-02-28T00:55:22;102618.99;;;2.53;57.96
78409;BME280;67697;50.750;-3.270;2023-02-28T00:57:47;102616.22;;;2.82;57.17
78409;BME280;67697;50.750;-3.270;2023-02-28T01:00:14;102620.10;;;2.96;56.99
78409;BME280;67697;50.750;-3.270;2023-02-28T01:02:38;102623.38;;;2.66;57.28
78409;BME280;67697;50.750;-3.270;2023-02-28T01:05:05;102627.67;;;3.34;55.08
78409;BME280;67697;50.750;-3.270;2023-02-28T01:07:30;102624.72;;;1.66;57.33
78409;BME280;67697;50.750;-3.270;2023-02-28T01:09:55;102633.05;;;3.36;54.30
78409;BME280;67697;50.750;-3.270;2023-02-28T01:12:20;102632.44;;;4.59;51.24
78409;BME280;67697;50.750;-3.270;2023-02-28T01:14:46;102637.04;;;3.33;53.57
78409;BME280;67697;50.750;-3.270;2023-02-28T01:17:11;102639.88;;;2.83;54.73
78409;BME280;67697;50.750;-3.270;2023-02-28T01:19:37;102639.59;;;3.41;53.64
78409;BME280;67697;50.750;-3.270;2023-02-28T01:22:03;102641.58;;;4.78;50.59
78409;BME280;67697;50.750;-3.270;2023-02-28T01:24:28;102642.07;;;2.79;55.80
78409;BME280;67697;50.750;-3.270;2023-02-28T01:26:53;102641.86;;;3.15;54.91
78409;BME280;67697;50.750;-3.270;2023-02-28T01:29:19;102642.05;;;2.40;56.76
78409;BME280;67697;50.750;-3.270;2023-02-28T01:31:44;102640.98;;;3.60;54.34
78409;BME280;67697;50.750;-3.270;2023-02-28T01:34:09;102643.86;;;3.73;53.64
78409;BME280;67697;50.750;-3.270;2023-02-28T01:36:35;102645.77;;;2.09;56.43
78409;BME280;67697;50.750;-3.270;2023-02-28T01:39:00;102645.64;;;3.28;54.51
78409;BME280;67697;50.750;-3.270;2023-02-28T01:41:27;102641.99;;;2.31;55.40
78409;BME280;67697;50.750;-3.270;2023-02-28T01:43:55;102639.91;;;3.47;52.99
78409;BME280;67697;50.750;-3.270;2023-02-28T01:46:17;102637.49;;;4.19;52.96
78409;BME280;67697;50.750;-3.270;2023-02-28T01:48:46;102637.83;;;4.31;52.23
78409;BME280;67697;50.750;-3.270;2023-02-28T01:51:11;102631.95;;;5.01;49.40
78409;BME280;67697;50.750;-3.270;2023-02-28T01:53:45;102639.60;;;4.11;50.37
78409;BME280;67697;50.750;-3.270;2023-02-28T01:55:58;102632.37;;;5.44;47.69
78409;BME280;67697;50.750;-3.270;2023-02-28T01:58:24;102632.22;;;4.99;47.53
78409;BME280;67697;50.750;-3.270;2023-02-28T02:00:50;102632.03;;;5.58;46.91
78409;BME280;67697;50.750;-3.270;2023-02-28T02:03:18;102633.57;;;4.00;49.62
78409;BME280;67697;50.750;-3.270;2023-02-28T02:05:41;102627.47;;;6.25;44.92
78409;BME280;67697;50.750;-3.270;2023-02-28T02:08:09;102626.04;;;5.17;46.36
78409;BME280;67697;50.750;-3.270;2023-02-28T02:10:34;102629.49;;;6.49;44.19
78409;BME280;67697;50.750;-3.270;2023-02-28T02:13:08;102629.56;;;5.68;46.28
78409;BME280;67697;50.750;-3.270;2023-02-28T02:15:26;102630.17;;;6.11;45.26
78409;BME280;67697;50.750;-3.270;2023-02-28T02:17:51;102633.57;;;5.83;44.71
78409;BME280;67697;50.750;-3.270;2023-02-28T02:25:14;102631.94;;;6.30;44.27
78409;BME280;67697;50.750;-3.270;2023-02-28T02:27:48;102633.87;;;6.13;43.88
78409;BME280;67697;50.750;-3.270;2023-02-28T02:30:08;102633.53;;;5.96;43.85
78409;BME280;67697;50.750;-3.270;2023-02-28T02:32:37;102636.09;;;6.52;42.54
78409;BME280;67697;50.750;-3.270;2023-02-28T02:34:55;102636.41;;;6.11;43.39
78409;BME280;67697;50.750;-3.270;2023-02-28T02:37:18;102634.46;;;5.51;43.52
78409;BME280;67697;50.750;-3.270;2023-02-28T02:39:45;102638.86;;;6.12;42.39
78409;BME280;67697;50.750;-3.270;2023-02-28T02:42:11;102640.79;;;4.91;45.19
78409;BME280;67697;50.750;-3.270;2023-02-28T02:44:34;102634.17;;;6.05;42.97
78409;BME280;67697;50.750;-3.270;2023-02-28T02:46:59;102631.94;;;5.95;43.09
78409;BME280;67697;50.750;-3.270;2023-02-28T02:49:22;102629.62;;;5.25;44.44
78409;BME280;67697;50.750;-3.270;2023-02-28T02:51:47;102634.28;;;5.30;44.17
78409;BME280;67697;50.750;-3.270;2023-02-28T02:54:14;102645.04;;;4.13;47.24
78409;BME280;67697;50.750;-3.270;2023-02-28T02:56:39;102640.75;;;4.08;47.77
78409;BME280;67697;50.750;-3.270;2023-02-28T02:59:06;102633.03;;;4.45;46.91
78409;BME280;67697;50.750;-3.270;2023-02-28T03:01:29;102631.65;;;4.37;46.81
78409;BME280;67697;50.750;-3.270;2023-02-28T03:03:55;102630.86;;;4.96;45.86
78409;BME280;67697;50.750;-3.270;2023-02-28T03:06:18;102631.06;;;4.81;45.52
78409;BME280;67697;50.750;-3.270;2023-02-28T03:08:43;102633.20;;;4.04;46.46
78409;BME280;67697;50.750;-3.270;2023-02-28T03:11:13;102635.33;;;3.32;48.61
78409;BME280;67697;50.750;-3.270;2023-02-28T03:13:44;102631.52;;;3.99;47.92
78409;BME280;67697;50.750;-3.270;2023-02-28T03:16:11;102630.97;;;4.33;47.74
78409;BME280;67697;50.750;-3.270;2023-02-28T03:18:30;102631.45;;;2.56;51.13
78409;BME280;67697;50.750;-3.270;2023-02-28T03:20:56;102634.33;;;4.28;48.30
78409;BME280;67697;50.750;-3.270;2023-02-28T03:23:17;102634.41;;;4.31;47.30
78409;BME280;67697;50.750;-3.270;2023-02-28T03:25:49;102638.24;;;4.43;47.12
78409;BME280;67697;50.750;-3.270;2023-02-28T03:28:11;102635.71;;;4.66;46.46
78409;BME280;67697;50.750;-3.270;2023-02-28T03:30:37;102636.28;;;4.90;45.46
78409;BME280;67697;50.750;-3.270;2023-02-28T03:32:59;102636.09;;;5.22;45.09
78409;BME280;67697;50.750;-3.270;2023-02-28T03:35:23;102639.25;;;5.14;45.47
78409;BME280;67697;50.750;-3.270;2023-02-28T03:37:49;102643.20;;;4.34;46.59
78409;BME280;67697;50.750;-3.270;2023-02-28T03:40:15;102645.27;;;5.01;45.11
78409;BME280;67697;50.750;-3.270;2023-02-28T03:42:39;102648.26;;;4.67;45.80
78409;BME280;67697;50.750;-3.270;2023-02-28T03:45:04;102645.71;;;5.11;45.20
78409;BME280;67697;50.750;-3.270;2023-02-28T03:47:32;102648.54;;;4.29;46.10
78409;BME280;67697;50.750;-3.270;2023-02-28T03:49:56;102647.23;;;4.80;45.19
78409;BME280;67697;50.750;-3.270;2023-02-28T03:52:20;102655.92;;;4.60;46.34
78409;BME280;67697;50.750;-3.270;2023-02-28T03:54:45;102655.56;;;4.35;47.00
78409;BME280;67697;50.750;-3.270;2023-02-28T03:57:13;102654.33;;;3.91;48.29
78409;BME280;67697;50.750;-3.270;2023-02-28T03:59:37;102656.99;;;4.46;47.05
78409;BME280;67697;50.750;-3.270;2023-02-28T04:01:59;102661.25;;;3.98;48.29
78409;BME280;67697;50.750;-3.270;2023-02-28T04:04:24;102661.06;;;4.18;47.14
78409;BME280;67697;50.750;-3.270;2023-02-28T04:06:50;102664.54;;;3.82;47.78
78409;BME280;67697;50.750;-3.270;2023-02-28T04:09:14;102662.15;;;4.20;46.53
78409;BME280;67697;50.750;-3.270;2023-02-28T04:11:41;102661.55;;;3.36;47.97
78409;BME280;67697;50.750;-3.270;2023-02-28T04:14:06;102664.01;;;3.99;47.09
78409;BME280;67697;50.750;-3.270;2023-02-28T04:16:30;102657.52;;;4.50;47.67
78409;BME280;67697;50.750;-3.270;2023-02-28T04:18:55;102657.73;;;4.17;47.57
78409;BME280;67697;50.750;-3.270;2023-02-28T04:21:20;102663.21;;;3.82;48.72
78409;BME280;67697;50.750;-3.270;2023-02-28T04:23:46;102666.58;;;3.29;48.48
78409;BME280;67697;50.750;-3.270;2023-02-28T04:26:10;102670.53;;;2.82;49.48
78409;BME280;67697;50.750;-3.270;2023-02-28T04:28:37;102672.17;;;3.10;48.80
78409;BME280;67697;50.750;-3.270;2023-02-28T04:31:03;102671.02;;;3.78;47.65
78409;BME280;67697;50.750;-3.270;2023-02-28T04:33:26;102675.36;;;3.91;47.07
78409;BME280;67697;50.750;-3.270;2023-02-28T04:36:00;102679.78;;;3.45;47.00
78409;BME280;67697;50.750;-3.270;2023-02-28T04:38:16;102679.89;;;4.00;45.68
78409;BME280;67697;50.750;-3.270;2023-02-28T04:40:41;102683.14;;;4.18;45.23
78409;BME280;67697;50.750;-3.270;2023-02-28T04:43:07;102686.65;;;4.01;45.50
78409;BME280;67697;50.750;-3.270;2023-02-28T04:45:32;102686.55;;;4.40;44.68
78409;BME280;67697;50.750;-3.270;2023-02-28T04:47:57;102684.65;;;3.50;46.40
78409;BME280;67697;50.750;-3.270;2023-02-28T04:50:22;102691.07;;;2.35;50.30
78409;BME280;67697;50.750;-3.270;2023-02-28T04:52:47;102690.25;;;3.26;47.98
78409;BME280;67697;50.750;-3.270;2023-02-28T04:55:12;102690.04;;;1.98;51.55
78409;BME280;67697;50.750;-3.270;2023-02-28T04:57:38;102688.93;;;2.33;52.14
78409;BME280;67697;50.750;-3.270;2023-02-28T05:00:04;102678.24;;;2.66;50.05
78409;BME280;67697;50.750;-3.270;2023-02-28T05:02:28;102678.55;;;1.78;52.96
78409;BME280;67697;50.750;-3.270;2023-02-28T05:04:53;102673.94;;;1.71;54.14
78409;BME280;67697;50.750;-3.270;2023-02-28T05:07:19;102670.07;;;2.72;52.15
78409;BME280;67697;50.750;-3.270;2023-02-28T05:09:44;102662.92;;;2.78;51.80
78409;BME280;67697;50.750;-3.270;2023-02-28T05:12:09;102664.40;;;2.78;50.05
78409;BME280;67697;50.750;-3.270;2023-02-28T05:14:34;102662.22;;;1.96;53.25
78409;BME280;67697;50.750;-3.270;2023-02-28T05:17:00;102664.99;;;3.42;47.71
78409;BME280;67697;50.750;-3.270;2023-02-28T05:19:25;102668.88;;;2.79;48.05
78409;BME280;67697;50.750;-3.270;2023-02-28T05:21:52;102669.76;;;3.34;47.37
78409;BME280;67697;50.750;-3.270;2023-02-28T05:24:16;102676.13;;;1.91;50.91
78409;BME280;67697;50.750;-3.270;2023-02-28T05:26:42;102674.02;;;2.42;48.87
78409;BME280;67697;50.750;-3.270;2023-02-28T05:29:07;102675.96;;;3.31;47.91
78409;BME280;67697;50.750;-3.270;2023-02-28T05:31:32;102679.76;;;3.39;47.50
78409;BME280;67697;50.750;-3.270;2023-02-28T05:33:57;102680.29;;;3.42;46.85
78409;BME280;67697;50.750;-3.270;2023-02-28T05:36:23;102683.04;;;4.24;45.45
78409;BME280;67697;50.750;-3.270;2023-02-28T05:38:48;102684.79;;;3.82;45.26
78409;BME280;67697;50.750;-3.270;2023-02-28T05:41:13;102679.57;;;4.26;44.39
78409;BME280;67697;50.750;-3.270;2023-02-28T05:43:38;102676.91;;;2.54;47.51
78409;BME280;67697;50.750;-3.270;2023-02-28T05:46:04;102673.16;;;2.29;48.69
78409;BME280;67697;50.750;-3.270;2023-02-28T05:48:29;102676.79;;;2.49;51.69
78409;BME280;67697;50.750;-3.270;2023-02-28T05:50:54;102684.42;;;1.89;54.44
78409;BME280;67697;50.750;-3.270;2023-02-28T05:53:19;102684.93;;;1.39;57.35
78409;BME280;67697;50.750;-3.270;2023-02-28T05:55:44;102689.82;;;1.34;57.93
78409;BME280;67697;50.750;-3.270;2023-02-28T05:58:10;102691.96;;;1.12;58.29
78409;BME280;67697;50.750;-3.270;2023-02-28T06:00:35;102692.64;;;1.60;57.63
78409;BME280;67697;50.750;-3.270;2023-02-28T06:03:01;102689.00;;;2.88;53.15
78409;BME280;67697;50.750;-3.270;2023-02-28T06:05:26;102692.00;;;2.28;52.93
78409;BME280;67697;50.750;-3.270;2023-02-28T06:07:51;102692.38;;;3.54;50.03
78409;BME280;67697;50.750;-3.270;2023-02-28T06:10:16;102696.34;;;4.16;48.67
78409;BME280;67697;50.750;-3.270;2023-02-28T06:12:41;102696.96;;;3.88;48.17
78409;BME280;67697;50.750;-3.270;2023-02-28T06:15:07;102697.85;;;4.13;49.01
78409;BME280;67697;50.750;-3.270;2023-02-28T06:17:31;102695.48;;;4.46;48.07
78409;BME280;67697;50.750;-3.270;2023-02-28T06:19:56;102696.34;;;3.73;49.64
78409;BME280;67697;50.750;-3.270;2023-02-28T06:22:21;102697.62;;;4.75;47.20
78409;BME280;67697;50.750;-3.270;2023-02-28T06:24:46;102691.72;;;4.62;46.73
78409;BME280;67697;50.750;-3.270;2023-02-28T06:27:12;102694.76;;;4.77;45.65
78409;BME280;67697;50.750;-3.270;2023-02-28T06:29:37;102698.31;;;3.70;46.24
78409;BME280;67697;50.750;-3.270;2023-02-28T06:32:02;102693.07;;;5.21;44.87
78409;BME280;67697;50.750;-3.270;2023-02-28T06:34:28;102694.99;;;5.30;44.10
78409;BME280;67697;50.750;-3.270;2023-02-28T06:36:54;102696.24;;;4.81;43.90
78409;BME280;67697;50.750;-3.270;2023-02-28T06:39:19;102696.83;;;4.53;44.31
78409;BME280;67697;50.750;-3.270;2023-02-28T06:41:44;102694.70;;;4.49;44.96
78409;BME280;67697;50.750;-3.270;2023-02-28T06:44:12;102689.04;;;4.76;44.03
78409;BME280;67697;50.750;-3.270;2023-02-28T06:46:35;102685.50;;;4.87;44.32
78409;BME280;67697;50.750;-3.270;2023-02-28T06:49:00;102681.54;;;3.98;46.41
78409;BME280;67697;50.750;-3.270;2023-02-28T06:51:25;102679.37;;;4.03;45.94
78409;BME280;67697;50.750;-3.270;2023-02-28T06:53:51;102681.20;;;4.56;45.53
78409;BME280;67697;50.750;-3.270;2023-02-28T06:56:17;102684.00;;;3.66;46.06
78409;BME280;67697;50.750;-3.270;2023-02-28T06:58:41;102684.44;;;3.00;48.40
78409;BME280;67697;50.750;-3.270;2023-02-28T07:01:07;102682.82;;;3.40;48.37
78409;BME280;67697;50.750;-3.270;2023-02-28T07:03:32;102679.85;;;3.42;48.95
78409;BME280;67697;50.750;-3.270;2023-02-28T07:05:57;102684.16;;;2.66;50.80
78409;BME280;67697;50.750;-3.270;2023-02-28T07:08:22;102686.38;;;2.05;54.13
78409;BME280;67697;50.750;-3.270;2023-02-28T07:10:47;102687.73;;;2.55;52.39
78409;BME280;67697;50.750;-3.270;2023-02-28T07:13:12;102690.11;;;2.12;54.82
78409;BME280;67697;50.750;-3.270;2023-02-28T07:15:37;102693.60;;;0.92;57.81
78409;BME280;67697;50.750;-3.270;2023-02-28T07:18:02;102705.40;;;0.21;61.01
78409;BME280;67697;50.750;-3.270;2023-02-28T07:20:27;102708.04;;;0.70;59.76
78409;BME280;67697;50.750;-3.270;2023-02-28T07:22:52;102716.48;;;0.51;60.52
78409;BME280;67697;50.750;-3.270;2023-02-28T07:25:18;102719.93;;;-0.16;62.77
78409;BME280;67697;50.750;-3.270;2023-02-28T07:27:43;102722.49;;;0.36;61.89
78409;BME280;67697;50.750;-3.270;2023-02-28T07:30:09;102722.24;;;0.60;61.35
78409;BME280;67697;50.750;-3.270;2023-02-28T07:32:33;102727.08;;;0.46;62.96
78409;BME280;67697;50.750;-3.270;2023-02-28T07:34:58;102727.24;;;1.08;60.79
78409;BME280;67697;50.750;-3.270;2023-02-28T07:37:23;102731.73;;;0.64;62.19
78409;BME280;67697;50.750;-3.270;2023-02-28T07:39:48;102733.03;;;0.95;61.23
78409;BME280;67697;50.750;-3.270;2023-02-28T07:42:14;102735.67;;;0.20;62.24
78409;BME280;67697;50.750;-3.270;2023-02-28T07:44:40;102741.97;;;0.37;62.94
78409;BME280;67697;50.750;-3.270;2023-02-28T07:47:04;102736.84;;;1.16;60.53
78409;BME280;67697;50.750;-3.270;2023-02-28T07:49:29;102739.70;;;1.07;62.01
78409;BME280;67697;50.750;-3.270;2023-02-28T07:51:54;102741.58;;;1.23;61.37
78409;BME280;67697;50.750;-3.270;2023-02-28T07:54:19;102743.76;;;1.11;61.85
78409;BME280;67697;50.750;-3.270;2023-02-28T07:56:45;102744.75;;;1.02;62.47
78409;BME280;67697;50.750;-3.270;2023-02-28T07:59:10;102742.39;;;0.75;62.53
78409;BME280;67697;50.750;-3.270;2023-02-28T08:01:35;102746.03;;;1.25;62.62
78409;BME280;67697;50.750;-3.270;2023-02-28T08:04:01;102752.59;;;0.79;63.38
78409;BME280;67697;50.750;-3.270;2023-02-28T08:06:26;102750.51;;;0.62;63.17
78409;BME280;67697;50.750;-3.270;2023-02-28T08:08:53;102752.49;;;1.13;62.64
78409;BME280;67697;50.750;-3.270;2023-02-28T08:11:18;102756.45;;;0.37;64.20
78409;BME280;67697;50.750;-3.270;2023-02-28T08:13:44;102754.19;;;1.03;62.98
78409;BME280;67697;50.750;-3.270;2023-02-28T08:16:09;102754.76;;;1.25;62.45
78409;BME280;67697;50.750;-3.270;2023-02-28T08:18:34;102748.38;;;1.75;61.09
78409;BME280;67697;50.750;-3.270;2023-02-28T08:21:06;102746.23;;;1.52;61.08
78409;BME280;67697;50.750;-3.270;2023-02-28T08:23:25;102749.79;;;1.40;63.08
78409;BME280;67697;50.750;-3.270;2023-02-28T08:25:53;102748.99;;;1.39;62.21
78409;BME280;67697;50.750;-3.270;2023-02-28T08:28:17;102751.38;;;1.50;62.26
78409;BME280;67697;50.750;-3.270;2023-02-28T08:30:42;102746.76;;;2.39;59.69
78409;BME280;67697;50.750;-3.270;2023-02-28T08:33:07;102747.02;;;2.54;59.67
78409;BME280;67697;50.750;-3.270;2023-02-28T08:35:36;102745.15;;;2.09;61.02
78409;BME280;67697;50.750;-3.270;2023-02-28T08:37:59;102747.31;;;1.89;61.23
78409;BME280;67697;50.750;-3.270;2023-02-28T08:40:25;102748.43;;;1.61;61.57
78409;BME280;67697;50.750;-3.270;2023-02-28T08:42:51;102754.70;;;1.99;61.71
78409;BME280;67697;50.750;-3.270;2023-02-28T08:45:16;102760.75;;;2.53;60.06
78409;BME280;67697;50.750;-3.270;2023-02-28T08:47:41;102758.56;;;2.42;59.98
78409;BME280;67697;50.750;-3.270;2023-02-28T08:50:07;102759.42;;;2.58;58.92
78409;BME280;67697;50.750;-3.270;2023-02-28T08:52:31;102757.09;;;2.78;59.71
78409;BME280;67697;50.750;-3.270;2023-02-28T08:54:57;102758.74;;;2.44;60.76
78409;BME280;67697;50.750;-3.270;2023-02-28T08:57:22;102758.88;;;2.32;60.27
78409;BME280;67697;50.750;-3.270;2023-02-28T08:59:48;102755.50;;;2.62;60.13
78409;BME280;67697;50.750;-3.270;2023-02-28T09:02:14;102753.38;;;2.77;59.71
78409;BME280;67697;50.750;-3.270;2023-02-28T09:04:39;102759.16;;;2.64;59.68
78409;BME280;67697;50.750;-3.270;2023-02-28T09:07:04;102755.70;;;2.42;59.84
78409;BME280;67697;50.750;-3.270;2023-02-28T09:09:30;102760.49;;;2.59;60.83
78409;BME280;67697;50.750;-3.270;2023-02-28T09:11:55;102757.79;;;2.79;59.75
78409;BME280;67697;50.750;-3.270;2023-02-28T09:14:21;102757.79;;;2.37;59.81
78409;BME280;67697;50.750;-3.270;2023-02-28T09:16:46;102758.74;;;2.87;59.41
78409;BME280;67697;50.750;-3.270;2023-02-28T09:19:12;102759.97;;;3.31;58.87
78409;BME280;67697;50.750;-3.270;2023-02-28T09:21:37;102760.47;;;3.40;59.03
78409;BME280;67697;50.750;-3.270;2023-02-28T09:24:03;102757.11;;;3.27;58.76
78409;BME280;67697;50.750;-3.270;2023-02-28T09:26:28;102753.88;;;3.23;58.93
78409;BME280;67697;50.750;-3.270;2023-02-28T09:28:55;102751.76;;;2.92;59.25
78409;BME280;67697;50.750;-3.270;2023-02-28T09:31:21;102752.78;;;3.14;59.21
78409;BME280;67697;50.750;-3.270;2023-02-28T09:33:45;102756.41;;;3.68;58.24
78409;BME280;67697;50.750;-3.270;2023-02-28T09:36:10;102756.25;;;4.07;57.21
78409;BME280;67697;50.750;-3.270;2023-02-28T09:38:36;102760.81;;;4.01;56.68
78409;BME280;67697;50.750;-3.270;2023-02-28T09:41:09;102763.51;;;3.58;57.36
78409;BME280;67697;50.750;-3.270;2023-02-28T09:43:31;102758.39;;;3.65;56.88
78409;BME280;67697;50.750;-3.270;2023-02-28T09:45:56;102756.51;;;4.44;55.47
78409;BME280;67697;50.750;-3.270;2023-02-28T09:48:23;102758.14;;;4.18;55.89
78409;BME280;67697;50.750;-3.270;2023-02-28T09:50:49;102757.18;;;3.99;55.56
78409;BME280;67697;50.750;-3.270;2023-02-28T09:53:18;102752.22;;;3.45;57.79
78409;BME280;67697;50.750;-3.270;2023-02-28T09:55:40;102752.32;;;4.38;56.22
78409;BME280;67697;50.750;-3.270;2023-02-28T09:58:03;102754.20;;;3.54;57.73
78409;BME280;67697;50.750;-3.270;2023-02-28T10:00:33;102754.76;;;3.61;57.54
78409;BME280;67697;50.750;-3.270;2023-02-28T10:03:06;102749.22;;;3.96;56.94
78409;BME280;67697;50.750;-3.270;2023-02-28T10:05:23;102746.75;;;3.82;56.23
78409;BME280;67697;50.750;-3.270;2023-02-28T10:07:55;102737.92;;;3.81;56.18
78409;BME280;67697;50.750;-3.270;2023-02-28T10:10:19;102741.52;;;4.02;56.41
78409;BME280;67697;50.750;-3.270;2023-02-28T10:12:40;102743.95;;;3.51;57.53
78409;BME280;67697;50.750;-3.270;2023-02-28T10:15:04;102741.68;;;4.23;56.23
78409;BME280;67697;50.750;-3.270;2023-02-28T10:17:35;102739.77;;;3.68;57.76
78409;BME280;67697;50.750;-3.270;2023-02-28T10:20:00;102738.42;;;3.66;57.13
78409;BME280;67697;50.750;-3.270;2023-02-28T10:22:23;102743.11;;;4.17;55.86
78409;BME280;67697;50.750;-3.270;2023-02-28T10:24:48;102743.87;;;4.49;55.89
78409;BME280;67697;50.750;-3.270;2023-02-28T10:27:15;102738.85;;;4.23;56.79
78409;BME280;67697;50.750;-3.270;2023-02-28T10:29:40;102733.82;;;4.51;56.73
78409;BME280;67697;50.750;-3.270;2023-02-28T10:32:04;102733.90;;;3.96;56.69
78409;BME280;67697;50.750;-3.270;2023-02-28T10:34:29;102736.90;;;4.33;55.31
78409;BME280;67697;50.750;-3.270;2023-02-28T10:36:56;102725.07;;;4.20;55.88
78409;BME280;67697;50.750;-3.270;2023-02-28T10:41:47;102720.03;;;4.47;55.25
78409;BME280;67697;50.750;-3.270;2023-02-28T10:44:16;102716.48;;;4.39;55.52
78409;BME280;67697;50.750;-3.270;2023-02-28T10:46:39;102716.81;;;4.00;56.32
78409;BME280;67697;50.750;-3.270;2023-02-28T10:49:06;102718.77;;;4.33;55.73
78409;BME280;67697;50.750;-3.270;2023-02-28T10:51:36;102718.59;;;4.34;56.48
78409;BME280;67697;50.750;-3.270;2023-02-28T10:53:56;102718.05;;;4.75;54.97
78409;BME280;67697;50.750;-3.270;2023-02-28T10:56:23;102714.01;;;5.23;54.63
78409;BME280;67697;50.750;-3.270;2023-02-28T10:58:52;102709.21;;;5.39;54.69
78409;BME280;67697;50.750;-3.270;2023-02-28T11:01:14;102703.26;;;5.86;52.88
78409;BME280;67697;50.750;-3.270;2023-02-28T11:03:38;102710.19;;;4.81;54.54
78409;BME280;67697;50.750;-3.270;2023-02-28T11:06:07;102702.61;;;5.04;53.93
78409;BME280;67697;50.750;-3.270;2023-02-28T11:08:29;102711.85;;;5.16;53.90
78409;BME280;67697;50.750;-3.270;2023-02-28T11:10:57;102695.63;;;5.26;53.44
78409;BME280;67697;50.750;-3.270;2023-02-28T11:13:24;102695.78;;;4.75;53.77
78409;BME280;67697;50.750;-3.270;2023-02-28T11:15:51;102696.48;;;4.91;54.47
78409;BME280;67697;50.750;-3.270;2023-02-28T11:18:22;102694.90;;;5.20;54.11
78409;BME280;67697;50.750;-3.270;2023-02-28T11:20:39;102692.62;;;4.70;54.46
78409;BME280;67697;50.750;-3.270;2023-02-28T11:23:04;102693.16;;;4.73;53.43
78409;BME280;67697;50.750;-3.270;2023-02-28T11:25:30;102699.42;;;4.28;55.35
78409;BME280;67697;50.750;-3.270;2023-02-28T11:27:57;102695.95;;;4.56;55.10
78409;BME280;67697;50.750;-3.270;2023-02-28T11:30:27;102697.22;;;5.37;53.13
78409;BME280;67697;50.750;-3.270;2023-02-28T11:32:48;102689.19;;;5.43;53.96
78409;BME280;67697;50.750;-3.270;2023-02-28T11:35:18;102695.65;;;4.80;53.88
78409;BME280;67697;50.750;-3.270;2023-02-28T11:37:39;102693.87;;;5.26;54.11
78409;BME280;67697;50.750;-3.270;2023-02-28T11:40:08;102692.77;;;5.08;53.77
78409;BME280;67697;50.750;-3.270;2023-02-28T11:42:45;102688.71;;;5.42;52.95
78409;BME280;67697;50.750;-3.270;2023-02-28T11:45:04;102689.50;;;5.38;52.66
78409;BME280;67697;50.750;-3.270;2023-02-28T11:47:28;102691.23;;;5.50;53.13
78409;BME280;67697;50.750;-3.270;2023-02-28T11:49:58;102691.14;;;5.33;52.67
78409;BME280;67697;50.750;-3.270;2023-02-28T11:52:20;102692.43;;;4.73;54.44
78409;BME280;67697;50.750;-3.270;2023-02-28T11:54:53;102686.38;;;5.01;54.05
78409;BME280;67697;50.750;-3.270;2023-02-28T11:57:13;102683.37;;;6.12;53.20
78409;BME280;67697;50.750;-3.270;2023-02-28T11:59:41;102680.97;;;6.29;52.01
78409;BME280;67697;50.750;-3.270;2023-02-28T12:02:08;102676.77;;;5.80;51.95
78409;BME280;67697;50.750;-3.270;2023-02-28T12:04:25;102675.11;;;5.03;52.67
78409;BME280;67697;50.750;-3.270;2023-02-28T12:06:52;102676.93;;;5.46;53.20
78409;BME280;67697;50.750;-3.270;2023-02-28T12:09:23;102672.11;;;5.85;52.32
78409;BME280;67697;50.750;-3.270;2023-02-28T12:11:45;102668.97;;;6.19;52.84
78409;BME280;67697;50.750;-3.270;2023-02-28T12:14:17;102663.16;;;6.04;52.61
78409;BME280;67697;50.750;-3.270;2023-02-28T12:16:37;102662.96;;;6.33;52.37
78409;BME280;67697;50.750;-3.270;2023-02-28T12:19:05;102653.22;;;6.16;51.88
78409;BME280;67697;50.750;-3.270;2023-02-28T12:21:27;102663.07;;;5.09;54.55
78409;BME280;67697;50.750;-3.270;2023-02-28T12:23:56;102652.57;;;6.09;54.25
78409;BME280;67697;50.750;-3.270;2023-02-28T12:26:15;102656.07;;;6.09;54.41
78409;BME280;67697;50.750;-3.270;2023-02-28T12:28:41;102646.75;;;5.83;53.24
78409;BME280;67697;50.750;-3.270;2023-02-28T12:31:09;102647.92;;;6.19;50.97
78409;BME280;67697;50.750;-3.270;2023-02-28T12:33:32;102645.93;;;5.80;51.12
78409;BME280;67697;50.750;-3.270;2023-02-28T12:35:56;102638.78;;;5.90;51.39
78409;BME280;67697;50.750;-3.270;2023-02-28T12:38:21;102631.17;;;5.36;51.83
78409;BME280;67697;50.750;-3.270;2023-02-28T12:40:48;102633.84;;;5.85;49.97
78409;BME280;67697;50.750;-3.270;2023-02-28T12:43:12;102635.87;;;6.04;50.39
78409;BME280;67697;50.750;-3.270;2023-02-28T12:45:40;102628.19;;;6.43;50.65
78409;BME280;67697;50.750;-3.270;2023-02-28T12:48:05;102625.55;;;6.24;49.64